Main page
METAR-TAF:

METAR-TAF

Airports :

King Abdulaziz Air Base

Dhahran, Saudi Arabia

latitude: 26-16N, longitude: 050-09E, elevation: 26 m

Current weather observation

The report was made 59 minutes ago, at 22:00 UTC
Wind 4 kt from the West
Temperature 28°C
Humidity 23%
Pressure 1007 hPa
Visibility 10 km or more
no clouds below 1500 m and no cumulonimbus

METAR: OEDR 252200Z 28004KT CAVOK 28/05 Q1007

Time: 01:59 (22:59 UTC)

Forecast

The report was made 12 hours and 59 minutes ago, at 10:00 UTC
Forecast valid from 25 at 12 UTC to 26 at 18 UTC
Wind 20 kt from the North
Visibility: 8000 m
Temporary
from 25 at 12 UTC to 25 at 18 UTC
Visibility: 3000 m
Blowing dust
Becoming
from 25 at 18 UTC to 25 at 20 UTC
Wind 8 kt from the West/Northwest
Becoming
from 26 at 06 UTC to 26 at 08 UTC
Wind 15 kt from the North

TAF: OEDR 251000Z 2512/2618 36020KT 8000 NSC TEMPO 2512/2518 3000 BLDU BECMG 2518/2520 29008KT BECMG 2606/2608 01015KT

Weather observations and forecasts of more than 4000 airports (METAR and TAF reports).

The available stations are represented by yellow and red dots on the map.

Hover mouse over dot to see the name of the station.

Then click to see weather observations and forecasts.

To change the map : click on the green buttons with a black cross to zoom in, on the green button with a dash to zoom out, or on the green arrows for adjacent maps.


METAR-TAF: